sensor_id;sensor_type;location;lat;lon;timestamp;temperature;humidity
42097;DHT22;27754;45.414;11.084;2023-02-28T00:00:38;5.40;57.80
42097;DHT22;27754;45.414;11.084;2023-02-28T00:03:05;5.50;58.10
42097;DHT22;27754;45.414;11.084;2023-02-28T00:05:33;5.50;57.40
42097;DHT22;27754;45.414;11.084;2023-02-28T00:08:00;5.50;56.70
42097;DHT22;27754;45.414;11.084;2023-02-28T00:10:29;5.60;56.70
42097;DHT22;27754;45.414;11.084;2023-02-28T00:13:01;5.40;57.00
42097;DHT22;27754;45.414;11.084;2023-02-28T00:15:29;5.50;57.10
42097;DHT22;27754;45.414;11.084;2023-02-28T00:17:56;5.50;57.10
42097;DHT22;27754;45.414;11.084;2023-02-28T00:20:23;5.40;57.10
42097;DHT22;27754;45.414;11.084;2023-02-28T00:22:52;5.40;57.20
42097;DHT22;27754;45.414;11.084;2023-02-28T00:25:24;5.40;57.40
42097;DHT22;27754;45.414;11.084;2023-02-28T00:27:51;5.40;57.00
42097;DHT22;27754;45.414;11.084;2023-02-28T00:30:21;5.40;57.10
42097;DHT22;27754;45.414;11.084;2023-02-28T00:32:49;5.40;57.10
42097;DHT22;27754;45.414;11.084;2023-02-28T00:35:16;5.40;57.20
42097;DHT22;27754;45.414;11.084;2023-02-28T00:37:43;5.40;57.30
42097;DHT22;27754;45.414;11.084;2023-02-28T00:40:10;5.40;57.30
42097;DHT22;27754;45.414;11.084;2023-02-28T00:42:39;5.40;57.50
42097;DHT22;27754;45.414;11.084;2023-02-28T00:45:07;5.40;57.70
42097;DHT22;27754;45.414;11.084;2023-02-28T00:47:37;5.40;57.60
42097;DHT22;27754;45.414;11.084;2023-02-28T00:50:05;5.30;57.70
42097;DHT22;27754;45.414;11.084;2023-02-28T00:52:32;5.30;57.80
42097;DHT22;27754;45.414;11.084;2023-02-28T00:54:59;5.30;57.70
42097;DHT22;27754;45.414;11.084;2023-02-28T00:57:26;5.30;57.50
42097;DHT22;27754;45.414;11.084;2023-02-28T00:59:53;5.30;57.50
42097;DHT22;27754;45.414;11.084;2023-02-28T01:02:23;5.30;57.70
42097;DHT22;27754;45.414;11.084;2023-02-28T01:04:52;5.30;57.80
42097;DHT22;27754;45.414;11.084;2023-02-28T01:07:19;5.30;57.70
42097;DHT22;27754;45.414;11.084;2023-02-28T01:09:46;5.30;57.90
42097;DHT22;27754;45.414;11.084;2023-02-28T01:12:13;5.30;58.00
42097;DHT22;27754;45.414;11.084;2023-02-28T01:14:40;5.30;58.20
42097;DHT22;27754;45.414;11.084;2023-02-28T01:17:07;5.30;58.00
42097;DHT22;27754;45.414;11.084;2023-02-28T01:19:34;5.20;58.20
42097;DHT22;27754;45.414;11.084;2023-02-28T01:22:04;5.30;58.10
42097;DHT22;27754;45.414;11.084;2023-02-28T01:24:32;5.20;58.00
42097;DHT22;27754;45.414;11.084;2023-02-28T01:27:00;5.30;58.00
42097;DHT22;27754;45.414;11.084;2023-02-28T01:29:27;5.30;58.00
42097;DHT22;27754;45.414;11.084;2023-02-28T01:31:54;5.20;57.80
42097;DHT22;27754;45.414;11.084;2023-02-28T01:34:21;5.30;58.00
42097;DHT22;27754;45.414;11.084;2023-02-28T01:36:48;5.20;58.10
42097;DHT22;27754;45.414;11.084;2023-02-28T01:39:15;5.20;58.10
42097;DHT22;27754;45.414;11.084;2023-02-28T01:41:42;5.20;58.20
42097;DHT22;27754;45.414;11.084;2023-02-28T01:47:14;5.20;58.20
42097;DHT22;27754;45.414;11.084;2023-02-28T01:49:41;5.20;58.50
42097;DHT22;27754;45.414;11.084;2023-02-28T01:52:10;5.20;58.20
42097;DHT22;27754;45.414;11.084;2023-02-28T01:54:41;5.20;58.30
42097;DHT22;27754;45.414;11.084;2023-02-28T01:57:19;5.20;58.00
42097;DHT22;27754;45.414;11.084;2023-02-28T01:59:54;5.30;58.50
42097;DHT22;27754;45.414;11.084;2023-02-28T02:02:23;5.20;58.10
42097;DHT22;27754;45.414;11.084;2023-02-28T02:05:02;5.20;58.20
42097;DHT22;27754;45.414;11.084;2023-02-28T02:07:33;5.20;58.30
42097;DHT22;27754;45.414;11.084;2023-02-28T02:10:15;5.20;58.40
42097;DHT22;27754;45.414;11.084;2023-02-28T02:15:37;5.10;58.30
42097;DHT22;27754;45.414;11.084;2023-02-28T02:18:35;5.20;58.40
42097;DHT22;27754;45.414;11.084;2023-02-28T02:26:57;5.20;58.40
42097;DHT22;27754;45.414;11.084;2023-02-28T02:35:46;5.30;59.30
42097;DHT22;27754;45.414;11.084;2023-02-28T02:38:19;5.20;59.20
42097;DHT22;27754;45.414;11.084;2023-02-28T02:43:54;5.20;59.10
42097;DHT22;27754;45.414;11.084;2023-02-28T02:46:39;5.30;59.00
42097;DHT22;27754;45.414;11.084;2023-02-28T02:49:15;5.30;58.70
42097;DHT22;27754;45.414;11.084;2023-02-28T02:51:43;5.30;58.30
42097;DHT22;27754;45.414;11.084;2023-02-28T02:54:27;5.30;58.50
42097;DHT22;27754;45.414;11.084;2023-02-28T02:56:58;5.30;58.20
42097;DHT22;27754;45.414;11.084;2023-02-28T02:59:28;5.30;58.10
42097;DHT22;27754;45.414;11.084;2023-02-28T03:01:59;5.30;58.40
42097;DHT22;27754;45.414;11.084;2023-02-28T03:04:32;5.30;58.20
42097;DHT22;27754;45.414;11.084;2023-02-28T03:06:59;5.30;58.20
42097;DHT22;27754;45.414;11.084;2023-02-28T03:09:26;5.30;58.10
42097;DHT22;27754;45.414;11.084;2023-02-28T03:11:55;5.30;57.90
42097;DHT22;27754;45.414;11.084;2023-02-28T03:20:42;5.20;58.40
42097;DHT22;27754;45.414;11.084;2023-02-28T03:23:34;5.20;58.70
42097;DHT22;27754;45.414;11.084;2023-02-28T03:26:27;5.20;58.60
42097;DHT22;27754;45.414;11.084;2023-02-28T03:29:22;5.10;58.70
42097;DHT22;27754;45.414;11.084;2023-02-28T03:34:34;5.10;58.70
42097;DHT22;27754;45.414;11.084;2023-02-28T03:37:09;5.10;58.90
42097;DHT22;27754;45.414;11.084;2023-02-28T03:39:43;5.10;59.10
42097;DHT22;27754;45.414;11.084;2023-02-28T03:42:18;5.10;59.30
42097;DHT22;27754;45.414;11.084;2023-02-28T03:44:55;5.00;59.20
42097;DHT22;27754;45.414;11.084;2023-02-28T03:47:51;5.00;59.30
42097;DHT22;27754;45.414;11.084;2023-02-28T03:50:23;4.90;59.40
42097;DHT22;27754;45.414;11.084;2023-02-28T03:52:56;4.90;59.20
42097;DHT22;27754;45.414;11.084;2023-02-28T03:55:32;4.90;59.10
42097;DHT22;27754;45.414;11.084;2023-02-28T03:58:11;4.90;59.30
42097;DHT22;27754;45.414;11.084;2023-02-28T04:00:45;4.90;59.30
42097;DHT22;27754;45.414;11.084;2023-02-28T04:03:13;4.90;59.50
42097;DHT22;27754;45.414;11.084;2023-02-28T04:06:07;4.90;59.40
42097;DHT22;27754;45.414;11.084;2023-02-28T04:08:35;4.80;59.30
42097;DHT22;27754;45.414;11.084;2023-02-28T04:11:15;4.90;59.10
42097;DHT22;27754;45.414;11.084;2023-02-28T04:13:44;4.90;59.00
42097;DHT22;27754;45.414;11.084;2023-02-28T04:16:13;4.90;59.00
42097;DHT22;27754;45.414;11.084;2023-02-28T04:18:59;4.90;59.10
42097;DHT22;27754;45.414;11.084;2023-02-28T04:21:33;4.90;59.10
42097;DHT22;27754;45.414;11.084;2023-02-28T04:24:01;4.90;59.20
42097;DHT22;27754;45.414;11.084;2023-02-28T04:26:32;4.90;59.00
42097;DHT22;27754;45.414;11.084;2023-02-28T04:29:00;4.90;59.00
42097;DHT22;27754;45.414;11.084;2023-02-28T04:31:27;4.90;59.00
42097;DHT22;27754;45.414;11.084;2023-02-28T04:33:54;4.90;59.20
42097;DHT22;27754;45.414;11.084;2023-02-28T04:36:21;4.90;59.00
42097;DHT22;27754;45.414;11.084;2023-02-28T04:38:49;4.90;59.10
42097;DHT22;27754;45.414;11.084;2023-02-28T04:41:17;4.90;59.20
42097;DHT22;27754;45.414;11.084;2023-02-28T04:43:44;4.90;59.10
42097;DHT22;27754;45.414;11.084;2023-02-28T04:46:11;4.90;59.40
42097;DHT22;27754;45.414;11.084;2023-02-28T04:48:39;4.90;59.50
42097;DHT22;27754;45.414;11.084;2023-02-28T04:51:10;4.90;59.40
42097;DHT22;27754;45.414;11.084;2023-02-28T04:53:38;4.90;59.50
42097;DHT22;27754;45.414;11.084;2023-02-28T04:56:06;4.90;59.60
42097;DHT22;27754;45.414;11.084;2023-02-28T04:58:37;4.90;59.60
42097;DHT22;27754;45.414;11.084;2023-02-28T05:01:22;4.90;59.50
42097;DHT22;27754;45.414;11.084;2023-02-28T05:03:51;4.90;59.60
42097;DHT22;27754;45.414;11.084;2023-02-28T05:06:19;4.90;59.60
42097;DHT22;27754;45.414;11.084;2023-02-28T05:08:47;4.90;59.50
42097;DHT22;27754;45.414;11.084;2023-02-28T05:13:46;4.80;60.00
42097;DHT22;27754;45.414;11.084;2023-02-28T05:16:14;4.80;60.00
42097;DHT22;27754;45.414;11.084;2023-02-28T05:18:41;4.90;60.00
42097;DHT22;27754;45.414;11.084;2023-02-28T05:21:35;4.90;59.70
42097;DHT22;27754;45.414;11.084;2023-02-28T05:24:06;4.90;59.60
42097;DHT22;27754;45.414;11.084;2023-02-28T05:26:37;4.90;59.80
42097;DHT22;27754;45.414;11.084;2023-02-28T05:29:05;4.90;59.70
42097;DHT22;27754;45.414;11.084;2023-02-28T05:31:32;4.90;59.70
42097;DHT22;27754;45.414;11.084;2023-02-28T05:33:59;4.90;59.50
42097;DHT22;27754;45.414;11.084;2023-02-28T05:36:27;4.90;59.70
42097;DHT22;27754;45.414;11.084;2023-02-28T05:38:54;4.90;60.00
42097;DHT22;27754;45.414;11.084;2023-02-28T05:41:21;4.80;60.20
42097;DHT22;27754;45.414;11.084;2023-02-28T05:43:48;4.80;60.20
42097;DHT22;27754;45.414;11.084;2023-02-28T05:46:16;4.80;60.10
42097;DHT22;27754;45.414;11.084;2023-02-28T05:48:46;4.90;59.90
42097;DHT22;27754;45.414;11.084;2023-02-28T05:51:13;4.90;59.80
42097;DHT22;27754;45.414;11.084;2023-02-28T05:53:40;4.90;60.00
42097;DHT22;27754;45.414;11.084;2023-02-28T05:56:07;4.80;60.00
42097;DHT22;27754;45.414;11.084;2023-02-28T05:58:34;4.90;59.60
42097;DHT22;27754;45.414;11.084;2023-02-28T06:03:52;4.90;59.80
42097;DHT22;27754;45.414;11.084;2023-02-28T06:06:19;4.90;59.80
42097;DHT22;27754;45.414;11.084;2023-02-28T06:08:46;4.90;59.90
42097;DHT22;27754;45.414;11.084;2023-02-28T06:11:13;4.90;59.90
42097;DHT22;27754;45.414;11.084;2023-02-28T06:13:40;4.90;60.20
42097;DHT22;27754;45.414;11.084;2023-02-28T06:16:10;4.90;60.80
42097;DHT22;27754;45.414;11.084;2023-02-28T06:18:38;4.90;60.10
42097;DHT22;27754;45.414;11.084;2023-02-28T06:21:05;4.90;60.20
42097;DHT22;27754;45.414;11.084;2023-02-28T06:23:32;4.90;59.80
42097;DHT22;27754;45.414;11.084;2023-02-28T06:25:59;5.00;59.80
42097;DHT22;27754;45.414;11.084;2023-02-28T06:28:26;5.00;60.00
42097;DHT22;27754;45.414;11.084;2023-02-28T06:30:53;5.00;60.50
42097;DHT22;27754;45.414;11.084;2023-02-28T06:33:20;5.10;59.80
42097;DHT22;27754;45.414;11.084;2023-02-28T06:35:50;5.10;60.30
42097;DHT22;27754;45.414;11.084;2023-02-28T06:38:17;5.20;59.70
42097;DHT22;27754;45.414;11.084;2023-02-28T06:40:45;5.20;59.60
42097;DHT22;27754;45.414;11.084;2023-02-28T06:43:19;5.20;59.70
42097;DHT22;27754;45.414;11.084;2023-02-28T06:45:46;5.20;59.60
42097;DHT22;27754;45.414;11.084;2023-02-28T06:48:13;5.30;59.90
42097;DHT22;27754;45.414;11.084;2023-02-28T06:50:40;5.30;60.30
42097;DHT22;27754;45.414;11.084;2023-02-28T06:53:07;5.40;60.10
42097;DHT22;27754;45.414;11.084;2023-02-28T06:55:34;5.50;59.50
42097;DHT22;27754;45.414;11.084;2023-02-28T06:58:01;5.60;58.90
42097;DHT22;27754;45.414;11.084;2023-02-28T07:00:28;5.70;58.80
42097;DHT22;27754;45.414;11.084;2023-02-28T07:02:55;5.80;58.40
42097;DHT22;27754;45.414;11.084;2023-02-28T07:05:22;5.90;58.30
42097;DHT22;27754;45.414;11.084;2023-02-28T07:07:49;6.00;57.90
42097;DHT22;27754;45.414;11.084;2023-02-28T07:10:16;6.00;58.20
42097;DHT22;27754;45.414;11.084;2023-02-28T07:12:46;6.10;57.50
42097;DHT22;27754;45.414;11.084;2023-02-28T07:15:13;6.20;57.40
42097;DHT22;27754;45.414;11.084;2023-02-28T07:17:39;6.20;57.60
42097;DHT22;27754;45.414;11.084;2023-02-28T07:20:07;6.10;57.00
42097;DHT22;27754;45.414;11.084;2023-02-28T07:22:35;6.20;57.70
42097;DHT22;27754;45.414;11.084;2023-02-28T07:25:02;6.30;56.90
42097;DHT22;27754;45.414;11.084;2023-02-28T07:27:29;6.40;56.90
42097;DHT22;27754;45.414;11.084;2023-02-28T07:29:56;6.40;56.60
42097;DHT22;27754;45.414;11.084;2023-02-28T07:32:23;6.50;56.00
42097;DHT22;27754;45.414;11.084;2023-02-28T07:34:50;6.50;56.20
42097;DHT22;27754;45.414;11.084;2023-02-28T07:37:17;6.60;56.00
42097;DHT22;27754;45.414;11.084;2023-02-28T07:39:44;6.60;56.00
42097;DHT22;27754;45.414;11.084;2023-02-28T07:42:11;6.60;55.60
42097;DHT22;27754;45.414;11.084;2023-02-28T07:44:39;6.70;55.60
42097;DHT22;27754;45.414;11.084;2023-02-28T07:47:08;6.90;55.70
42097;DHT22;27754;45.414;11.084;2023-02-28T07:49:36;7.10;55.80
42097;DHT22;27754;45.414;11.084;2023-02-28T07:52:05;7.30;54.60
42097;DHT22;27754;45.414;11.084;2023-02-28T07:54:33;7.10;55.40
42097;DHT22;27754;45.414;11.084;2023-02-28T07:57:00;7.00;54.50
42097;DHT22;27754;45.414;11.084;2023-02-28T07:59:27;6.90;55.60
42097;DHT22;27754;45.414;11.084;2023-02-28T08:01:58;6.90;54.90
42097;DHT22;27754;45.414;11.084;2023-02-28T08:04:26;6.90;55.30
42097;DHT22;27754;45.414;11.084;2023-02-28T08:06:53;7.00;54.80
42097;DHT22;27754;45.414;11.084;2023-02-28T08:09:20;6.90;54.90
42097;DHT22;27754;45.414;11.084;2023-02-28T08:11:47;6.80;55.60
42097;DHT22;27754;45.414;11.084;2023-02-28T08:14:14;7.00;55.60
42097;DHT22;27754;45.414;11.084;2023-02-28T08:16:41;7.00;55.00
42097;DHT22;27754;45.414;11.084;2023-02-28T08:19:09;7.00;55.30
42097;DHT22;27754;45.414;11.084;2023-02-28T08:21:36;7.10;55.50
42097;DHT22;27754;45.414;11.084;2023-02-28T08:24:03;7.20;54.90
42097;DHT22;27754;45.414;11.084;2023-02-28T08:26:30;7.10;55.00
42097;DHT22;27754;45.414;11.084;2023-02-28T08:28:57;7.10;55.30
42097;DHT22;27754;45.414;11.084;2023-02-28T08:31:27;7.20;54.70
42097;DHT22;27754;45.414;11.084;2023-02-28T08:33:55;7.10;54.30
42097;DHT22;27754;45.414;11.084;2023-02-28T08:36:25;7.20;54.90
42097;DHT22;27754;45.414;11.084;2023-02-28T08:38:56;7.20;54.30
42097;DHT22;27754;45.414;11.084;2023-02-28T08:41:23;7.00;54.40
42097;DHT22;27754;45.414;11.084;2023-02-28T08:43:50;7.00;54.60
42097;DHT22;27754;45.414;11.084;2023-02-28T08:46:17;7.20;54.70
42097;DHT22;27754;45.414;11.084;2023-02-28T08:48:44;7.30;54.10
42097;DHT22;27754;45.414;11.084;2023-02-28T08:51:16;7.20;53.70
42097;DHT22;27754;45.414;11.084;2023-02-28T08:53:48;7.40;54.10
42097;DHT22;27754;45.414;11.084;2023-02-28T08:56:18;7.50;53.70
42097;DHT22;27754;45.414;11.084;2023-02-28T08:58:46;7.50;53.30
42097;DHT22;27754;45.414;11.084;2023-02-28T09:01:19;7.50;53.10
42097;DHT22;27754;45.414;11.084;2023-02-28T09:03:48;7.50;52.80
42097;DHT22;27754;45.414;11.084;2023-02-28T09:06:17;7.50;52.80
42097;DHT22;27754;45.414;11.084;2023-02-28T09:08:45;7.70;52.50
42097;DHT22;27754;45.414;11.084;2023-02-28T09:11:12;7.70;52.00
42097;DHT22;27754;45.414;11.084;2023-02-28T09:13:39;7.70;52.40
42097;DHT22;27754;45.414;11.084;2023-02-28T09:16:08;7.70;52.40
42097;DHT22;27754;45.414;11.084;2023-02-28T09:18:37;7.80;52.40
42097;DHT22;27754;45.414;11.084;2023-02-28T09:21:06;7.80;51.70
42097;DHT22;27754;45.414;11.084;2023-02-28T09:23:34;7.80;52.00
42097;DHT22;27754;45.414;11.084;2023-02-28T09:26:01;7.90;51.90
42097;DHT22;27754;45.414;11.084;2023-02-28T09:28:28;7.90;51.60
42097;DHT22;27754;45.414;11.084;2023-02-28T09:30:55;7.90;51.50
42097;DHT22;27754;45.414;11.084;2023-02-28T09:33:24;7.90;51.60
42097;DHT22;27754;45.414;11.084;2023-02-28T09:35:59;7.90;51.00
42097;DHT22;27754;45.414;11.084;2023-02-28T09:38:27;7.90;50.90
42097;DHT22;27754;45.414;11.084;2023-02-28T09:41:01;8.20;51.00
42097;DHT22;27754;45.414;11.084;2023-02-28T09:43:35;8.10;50.30
42097;DHT22;27754;45.414;11.084;2023-02-28T09:48:54;8.20;51.40
42097;DHT22;27754;45.414;11.084;2023-02-28T09:54:16;8.20;50.20
42097;DHT22;27754;45.414;11.084;2023-02-28T09:56:59;8.10;50.30
42097;DHT22;27754;45.414;11.084;2023-02-28T09:59:36;8.00;51.10
42097;DHT22;27754;45.414;11.084;2023-02-28T10:05:30;8.30;50.80
42097;DHT22;27754;45.414;11.084;2023-02-28T10:08:27;8.40;51.50
42097;DHT22;27754;45.414;11.084;2023-02-28T10:10:57;8.40;51.10
42097;DHT22;27754;45.414;11.084;2023-02-28T10:16:55;8.40;51.00
42097;DHT22;27754;45.414;11.084;2023-02-28T10:22:27;8.50;50.10
42097;DHT22;27754;45.414;11.084;2023-02-28T10:24:57;8.50;50.30
42097;DHT22;27754;45.414;11.084;2023-02-28T10:27:32;8.50;50.30
42097;DHT22;27754;45.414;11.084;2023-02-28T10:30:00;8.50;49.50
42097;DHT22;27754;45.414;11.084;2023-02-28T10:32:34;8.50;50.40
42097;DHT22;27754;45.414;11.084;2023-02-28T10:37:55;8.40;49.90
42097;DHT22;27754;45.414;11.084;2023-02-28T10:45:23;8.80;49.60
42097;DHT22;27754;45.414;11.084;2023-02-28T10:48:00;9.00;50.50
42097;DHT22;27754;45.414;11.084;2023-02-28T10:50:32;8.80;49.40
42097;DHT22;27754;45.414;11.084;2023-02-28T10:55:57;8.80;48.90
42097;DHT22;27754;45.414;11.084;2023-02-28T10:58:28;8.90;49.40
42097;DHT22;27754;45.414;11.084;2023-02-28T11:00:56;8.80;49.00
42097;DHT22;27754;45.414;11.084;2023-02-28T11:03:34;8.80;49.60
42097;DHT22;27754;45.414;11.084;2023-02-28T11:06:07;8.90;49.20
42097;DHT22;27754;45.414;11.084;2023-02-28T11:08:48;9.10;49.50
42097;DHT22;27754;45.414;11.084;2023-02-28T11:11:17;9.10;48.50
42097;DHT22;27754;45.414;11.084;2023-02-28T11:13:45;8.90;49.00
42097;DHT22;27754;45.414;11.084;2023-02-28T11:16:14;9.20;50.60
42097;DHT22;27754;45.414;11.084;2023-02-28T11:18:55;9.30;49.10
42097;DHT22;27754;45.414;11.084;2023-02-28T11:21:33;9.30;49.50
42097;DHT22;27754;45.414;11.084;2023-02-28T11:24:05;9.40;49.60
42097;DHT22;27754;45.414;11.084;2023-02-28T11:26:45;9.50;48.30
42097;DHT22;27754;45.414;11.084;2023-02-28T11:29:15;9.30;48.60
42097;DHT22;27754;45.414;11.084;2023-02-28T11:31:52;9.50;49.40
42097;DHT22;27754;45.414;11.084;2023-02-28T11:34:28;9.40;48.50
42097;DHT22;27754;45.414;11.084;2023-02-28T11:36:56;9.40;49.60
42097;DHT22;27754;45.414;11.084;2023-02-28T11:39:25;9.50;48.90
42097;DHT22;27754;45.414;11.084;2023-02-28T11:47:42;9.60;48.70
42097;DHT22;27754;45.414;11.084;2023-02-28T11:50:32;9.70;48.50
42097;DHT22;27754;45.414;11.084;2023-02-28T11:53:10;9.70;48.50
42097;DHT22;27754;45.414;11.084;2023-02-28T12:04:34;9.60;48.90
42097;DHT22;27754;45.414;11.084;2023-02-28T12:07:50;9.60;49.20
42097;DHT22;27754;45.414;11.084;2023-02-28T12:10:17;9.70;49.30
42097;DHT22;27754;45.414;11.084;2023-02-28T12:15:28;9.80;49.00
42097;DHT22;27754;45.414;11.084;2023-02-28T12:18:39;9.90;49.40
42097;DHT22;27754;45.414;11.084;2023-02-28T12:26:40;10.00;49.00
42097;DHT22;27754;45.414;11.084;2023-02-28T12:31:55;10.10;48.50
42097;DHT22;27754;45.414;11.084;2023-02-28T12:34:28;10.30;49.60
42097;DHT22;27754;45.414;11.084;2023-02-28T12:37:03;10.30;49.20
42097;DHT22;27754;45.414;11.084;2023-02-28T12:39:35;10.20;48.70
42097;DHT22;27754;45.414;11.084;2023-02-28T12:42:30;10.20;48.80
42097;DHT22;27754;45.414;11.084;2023-02-28T12:45:04;10.30;48.80
42097;DHT22;27754;45.414;11.084;2023-02-28T12:47:38;10.30;48.90
42097;DHT22;27754;45.414;11.084;2023-02-28T12:50:09;10.00;49.10
42097;DHT22;27754;45.414;11.084;2023-02-28T12:56:24;10.20;49.70
42097;DHT22;27754;45.414;11.084;2023-02-28T12:59:03;10.40;49.60
42097;DHT22;27754;45.414;11.084;2023-02-28T13:01:57;10.40;49.40
42097;DHT22;27754;45.414;11.084;2023-02-28T13:10:15;10.60;49.30
42097;DHT22;27754;45.414;11.084;2023-02-28T13:12:54;10.50;49.40
42097;DHT22;27754;45.414;11.084;2023-02-28T13:15:26;10.50;49.60
42097;DHT22;27754;45.414;11.084;2023-02-28T13:17:57;10.50;49.80
42097;DHT22;27754;45.414;11.084;2023-02-28T13:20:27;10.60;50.10
42097;DHT22;27754;45.414;11.084;2023-02-28T13:22:56;10.80;50.00
42097;DHT22;27754;45.414;11.084;2023-02-28T13:28:01;10.80;48.80
42097;DHT22;27754;45.414;11.084;2023-02-28T13:31:04;10.60;48.90
42097;DHT22;27754;45.414;11.084;2023-02-28T13:38:57;10.70;50.40
42097;DHT22;27754;45.414;11.084;2023-02-28T13:44:16;10.80;49.30
42097;DHT22;27754;45.414;11.084;2023-02-28T13:49:28;10.90;49.60
42097;DHT22;27754;45.414;11.084;2023-02-28T13:55:09;11.00;49.40
42097;DHT22;27754;45.414;11.084;2023-02-28T14:06:26;10.90;48.70
42097;DHT22;27754;45.414;11.084;2023-02-28T14:11:49;11.00;49.60
42097;DHT22;27754;45.414;11.084;2023-02-28T14:14:55;10.80;49.50
42097;DHT22;27754;45.414;11.084;2023-02-28T14:17:24;10.90;49.60
42097;DHT22;27754;45.414;11.084;2023-02-28T14:19:52;10.80;50.90
42097;DHT22;27754;45.414;11.084;2023-02-28T14:31:15;11.00;49.70
42097;DHT22;27754;45.414;11.084;2023-02-28T14:34:20;10.90;50.30
42097;DHT22;27754;45.414;11.084;2023-02-28T14:36:50;10.80;50.30
42097;DHT22;27754;45.414;11.084;2023-02-28T14:39:22;10.90;50.50
42097;DHT22;27754;45.414;11.084;2023-02-28T14:41:49;10.90;50.30
42097;DHT22;27754;45.414;11.084;2023-02-28T14:44:24;10.90;49.90
42097;DHT22;27754;45.414;11.084;2023-02-28T14:46:57;10.80;50.00
42097;DHT22;27754;45.414;11.084;2023-02-28T14:49:36;10.80;50.10
42097;DHT22;27754;45.414;11.084;2023-02-28T14:52:29;10.90;50.10
42097;DHT22;27754;45.414;11.084;2023-02-28T14:57:26;10.90;50.60
42097;DHT22;27754;45.414;11.084;2023-02-28T15:00:03;11.00;50.90
42097;DHT22;27754;45.414;11.084;2023-02-28T15:02:34;11.00;50.70
42097;DHT22;27754;45.414;11.084;2023-02-28T15:07:48;10.90;50.50
42097;DHT22;27754;45.414;11.084;2023-02-28T15:10:26;10.90;50.50
42097;DHT22;27754;45.414;11.084;2023-02-28T15:13:07;10.80;50.90
42097;DHT22;27754;45.414;11.084;2023-02-28T15:16:04;10.70;51.00
42097;DHT22;27754;45.414;11.084;2023-02-28T15:18:53;10.80;51.90
42097;DHT22;27754;45.414;11.084;2023-02-28T15:21:32;10.80;52.10
42097;DHT22;27754;45.414;11.084;2023-02-28T15:24:32;10.70;52.40
42097;DHT22;27754;45.414;11.084;2023-02-28T15:27:10;10.60;52.30
42097;DHT22;27754;45.414;11.084;2023-02-28T15:29:47;10.60;52.80
42097;DHT22;27754;45.414;11.084;2023-02-28T15:32:37;10.60;52.80
42097;DHT22;27754;45.414;11.084;2023-02-28T15:35:29;10.60;53.30
42097;DHT22;27754;45.414;11.084;2023-02-28T15:40:46;10.60;53.00
42097;DHT22;27754;45.414;11.084;2023-02-28T15:43:31;10.50;53.00
42097;DHT22;27754;45.414;11.084;2023-02-28T15:46:01;10.50;52.90
42097;DHT22;27754;45.414;11.084;2023-02-28T15:53:50;10.40;53.10
42097;DHT22;27754;45.414;11.084;2023-02-28T15:56:25;10.40;53.10
42097;DHT22;27754;45.414;11.084;2023-02-28T15:59:07;10.40;53.30
42097;DHT22;27754;45.414;11.084;2023-02-28T16:01:39;10.30;53.60
42097;DHT22;27754;45.414;11.084;2023-02-28T16:06:43;10.20;52.70
42097;DHT22;27754;45.414;11.084;2023-02-28T16:09:16;10.20;53.00
42097;DHT22;27754;45.414;11.084;2023-02-28T16:11:49;10.20;53.40
42097;DHT22;27754;45.414;11.084;2023-02-28T16:14:24;10.20;53.70
42097;DHT22;27754;45.414;11.084;2023-02-28T16:16:52;10.10;54.00
42097;DHT22;27754;45.414;11.084;2023-02-28T16:19:20;10.10;54.00
42097;DHT22;27754;45.414;11.084;2023-02-28T16:21:48;10.00;54.00
42097;DHT22;27754;45.414;11.084;2023-02-28T16:24:15;10.00;54.40
42097;DHT22;27754;45.414;11.084;2023-02-28T16:26:46;9.90;54.30
42097;DHT22;27754;45.414;11.084;2023-02-28T16:29:35;9.90;54.20
42097;DHT22;27754;45.414;11.084;2023-02-28T16:32:05;9.90;54.40
42097;DHT22;27754;45.414;11.084;2023-02-28T16:34:32;9.90;54.50
42097;DHT22;27754;45.414;11.084;2023-02-28T16:36:59;9.80;54.70
42097;DHT22;27754;45.414;11.084;2023-02-28T16:39:26;9.70;54.90
42097;DHT22;27754;45.414;11.084;2023-02-28T16:41:53;9.70;55.20
42097;DHT22;27754;45.414;11.084;2023-02-28T16:44:32;9.70;55.20
42097;DHT22;27754;45.414;11.084;2023-02-28T16:47:01;9.60;55.20
42097;DHT22;27754;45.414;11.084;2023-02-28T16:49:29;9.60;55.60
42097;DHT22;27754;45.414;11.084;2023-02-28T16:51:56;9.50;55.30
42097;DHT22;27754;45.414;11.084;2023-02-28T16:54:23;9.50;55.50
42097;DHT22;27754;45.414;11.084;2023-02-28T16:56:50;9.40;55.50
42097;DHT22;27754;45.414;11.084;2023-02-28T16:59:23;9.40;55.50
42097;DHT22;27754;45.414;11.084;2023-02-28T17:01:51;9.40;55.80
42097;DHT22;27754;45.414;11.084;2023-02-28T17:04:19;9.30;56.20
42097;DHT22;27754;45.414;11.084;2023-02-28T17:06:46;9.20;56.30
42097;DHT22;27754;45.414;11.084;2023-02-28T17:09:21;9.20;57.10
42097;DHT22;27754;45.414;11.084;2023-02-28T17:11:56;9.10;58.10
42097;DHT22;27754;45.414;11.084;2023-02-28T17:14:23;8.90;59.80
42097;DHT22;27754;45.414;11.084;2023-02-28T17:16:50;8.80;61.10
42097;DHT22;27754;45.414;11.084;2023-02-28T17:19:17;8.70;62.30
42097;DHT22;27754;45.414;11.084;2023-02-28T17:21:46;8.60;62.90
42097;DHT22;27754;45.414;11.084;2023-02-28T17:24:13;8.40;63.30
42097;DHT22;27754;45.414;11.084;2023-02-28T17:26:45;8.40;63.70
42097;DHT22;27754;45.414;11.084;2023-02-28T17:29:18;8.30;64.20
42097;DHT22;27754;45.414;11.084;2023-02-28T17:31:46;8.20;64.50
42097;DHT22;27754;45.414;11.084;2023-02-28T17:34:13;8.10;64.90
42097;DHT22;27754;45.414;11.084;2023-02-28T17:36:46;8.00;65.20
42097;DHT22;27754;45.414;11.084;2023-02-28T17:39:15;8.00;65.50
42097;DHT22;27754;45.414;11.084;2023-02-28T17:41:46;7.90;65.80
42097;DHT22;27754;45.414;11.084;2023-02-28T17:44:13;7.90;66.10
42097;DHT22;27754;45.414;11.084;2023-02-28T17:46:40;7.90;66.40
42097;DHT22;27754;45.414;11.084;2023-02-28T17:49:08;7.90;66.50
42097;DHT22;27754;45.414;11.084;2023-02-28T17:51:35;7.80;66.60
42097;DHT22;27754;45.414;11.084;2023-02-28T17:54:02;7.80;66.80
42097;DHT22;27754;45.414;11.084;2023-02-28T17:56:29;7.80;67.00
42097;DHT22;27754;45.414;11.084;2023-02-28T17:58:57;7.70;67.10
42097;DHT22;27754;45.414;11.084;2023-02-28T18:01:24;7.70;67.20
42097;DHT22;27754;45.414;11.084;2023-02-28T18:03:53;7.60;67.30
42097;DHT22;27754;45.414;11.084;2023-02-28T18:06:40;7.60;67.40
42097;DHT22;27754;45.414;11.084;2023-02-28T18:09:19;7.50;67.80
42097;DHT22;27754;45.414;11.084;2023-02-28T18:11:52;7.50;67.80
42097;DHT22;27754;45.414;11.084;2023-02-28T18:14:21;7.50;67.90
42097;DHT22;27754;45.414;11.084;2023-02-28T18:16:51;7.40;67.90
42097;DHT22;27754;45.414;11.084;2023-02-28T18:19:18;7.40;68.10
42097;DHT22;27754;45.414;11.084;2023-02-28T18:21:48;7.40;68.10
42097;DHT22;27754;45.414;11.084;2023-02-28T18:24:17;7.40;68.20